sensor_id;sensor_type;location;lat;lon;timestamp;pressure;altitude;pressure_sealevel;temperature;humidity
40372;BME280;28564;53.346;-6.554;2023-02-12T00:00:08;102851.44;;;12.56;39.81
40372;BME280;28564;53.346;-6.554;2023-02-12T00:02:35;102851.63;;;12.26;39.72
40372;BME280;28564;53.346;-6.554;2023-02-12T00:05:03;102854.08;;;12.15;39.80
40372;BME280;28564;53.346;-6.554;2023-02-12T00:07:31;102854.64;;;12.29;39.89
40372;BME280;28564;53.346;-6.554;2023-02-12T00:09:58;102855.42;;;12.23;39.95
40372;BME280;28564;53.346;-6.554;2023-02-12T00:12:27;102850.44;;;12.21;40.05
40372;BME280;28564;53.346;-6.554;2023-02-12T00:14:54;102857.36;;;12.18;39.98
40372;BME280;28564;53.346;-6.554;2023-02-12T00:17:22;102856.60;;;12.13;40.04
40372;BME280;28564;53.346;-6.554;2023-02-12T00:19:49;102854.60;;;12.15;40.02
40372;BME280;28564;53.346;-6.554;2023-02-12T00:22:16;102854.77;;;12.08;39.90
40372;BME280;28564;53.346;-6.554;2023-02-12T00:24:44;102852.87;;;12.00;40.14
40372;BME280;28564;53.346;-6.554;2023-02-12T00:27:11;102853.42;;;12.15;40.45
40372;BME280;28564;53.346;-6.554;2023-02-12T00:29:39;102847.52;;;12.29;40.81
40372;BME280;28564;53.346;-6.554;2023-02-12T00:32:06;102848.04;;;12.01;41.16
40372;BME280;28564;53.346;-6.554;2023-02-12T00:34:33;102850.38;;;11.99;41.31
40372;BME280;28564;53.346;-6.554;2023-02-12T00:37:00;102846.39;;;11.77;41.37
40372;BME280;28564;53.346;-6.554;2023-02-12T00:39:27;102844.29;;;11.82;41.40
40372;BME280;28564;53.346;-6.554;2023-02-12T00:41:55;102842.08;;;11.87;41.42
40372;BME280;28564;53.346;-6.554;2023-02-12T00:44:22;102838.75;;;11.89;41.48
40372;BME280;28564;53.346;-6.554;2023-02-12T00:46:49;102839.20;;;11.95;41.48
40372;BME280;28564;53.346;-6.554;2023-02-12T00:49:16;102833.07;;;12.45;41.47
40372;BME280;28564;53.346;-6.554;2023-02-12T00:51:43;102827.38;;;11.94;41.51
40372;BME280;28564;53.346;-6.554;2023-02-12T00:54:10;102829.89;;;11.95;41.54
40372;BME280;28564;53.346;-6.554;2023-02-12T00:56:38;102827.39;;;12.17;41.62
40372;BME280;28564;53.346;-6.554;2023-02-12T00:59:05;102827.41;;;11.89;41.68
40372;BME280;28564;53.346;-6.554;2023-02-12T01:01:32;102823.79;;;11.89;41.73
40372;BME280;28564;53.346;-6.554;2023-02-12T01:03:59;102818.11;;;11.91;41.75
40372;BME280;28564;53.346;-6.554;2023-02-12T01:06:26;102816.87;;;11.93;41.77
40372;BME280;28564;53.346;-6.554;2023-02-12T01:08:53;102813.02;;;11.96;41.75
40372;BME280;28564;53.346;-6.554;2023-02-12T01:11:21;102813.09;;;11.97;41.75
40372;BME280;28564;53.346;-6.554;2023-02-12T01:13:48;102802.45;;;11.95;41.80
40372;BME280;28564;53.346;-6.554;2023-02-12T01:16:18;102797.75;;;11.92;41.87
40372;BME280;28564;53.346;-6.554;2023-02-12T01:18:46;102797.98;;;11.86;41.97
40372;BME280;28564;53.346;-6.554;2023-02-12T01:21:16;102793.97;;;12.24;42.14
40372;BME280;28564;53.346;-6.554;2023-02-12T01:23:44;102794.99;;;11.69;42.32
40372;BME280;28564;53.346;-6.554;2023-02-12T01:26:13;102792.70;;;12.15;42.36
40372;BME280;28564;53.346;-6.554;2023-02-12T01:28:43;102787.63;;;11.94;42.45
40372;BME280;28564;53.346;-6.554;2023-02-12T01:31:13;102781.73;;;11.73;42.46
40372;BME280;28564;53.346;-6.554;2023-02-12T01:33:43;102780.95;;;11.79;42.45
40372;BME280;28564;53.346;-6.554;2023-02-12T01:36:10;102776.86;;;12.06;42.30
40372;BME280;28564;53.346;-6.554;2023-02-12T01:38:37;102779.71;;;11.75;42.33
40372;BME280;28564;53.346;-6.554;2023-02-12T01:41:06;102777.70;;;11.73;42.35
40372;BME280;28564;53.346;-6.554;2023-02-12T01:43:35;102772.94;;;11.64;42.26
40372;BME280;28564;53.346;-6.554;2023-02-12T01:46:04;102774.77;;;11.99;42.03
40372;BME280;28564;53.346;-6.554;2023-02-12T01:48:35;102774.93;;;11.91;42.09
40372;BME280;28564;53.346;-6.554;2023-02-12T01:51:04;102774.55;;;11.83;42.24
40372;BME280;28564;53.346;-6.554;2023-02-12T01:53:35;102771.32;;;11.80;42.29
40372;BME280;28564;53.346;-6.554;2023-02-12T01:56:05;102767.31;;;11.77;42.35
40372;BME280;28564;53.346;-6.554;2023-02-12T01:58:37;102770.04;;;11.78;42.34
40372;BME280;28564;53.346;-6.554;2023-02-12T02:01:07;102762.94;;;11.77;42.33
40372;BME280;28564;53.346;-6.554;2023-02-12T02:03:37;102764.25;;;11.78;42.33
40372;BME280;28564;53.346;-6.554;2023-02-12T02:06:10;102764.43;;;11.74;42.30
40372;BME280;28564;53.346;-6.554;2023-02-12T02:08:38;102759.56;;;11.69;42.42
40372;BME280;28564;53.346;-6.554;2023-02-12T02:11:05;102757.31;;;11.70;42.45
40372;BME280;28564;53.346;-6.554;2023-02-12T02:13:32;102760.04;;;11.97;42.44
40372;BME280;28564;53.346;-6.554;2023-02-12T02:16:03;102761.80;;;11.63;42.36
40372;BME280;28564;53.346;-6.554;2023-02-12T02:18:39;102762.02;;;11.83;42.47
40372;BME280;28564;53.346;-6.554;2023-02-12T02:21:25;102760.75;;;11.80;42.52
40372;BME280;28564;53.346;-6.554;2023-02-12T02:24:11;102762.45;;;11.77;42.59
40372;BME280;28564;53.346;-6.554;2023-02-12T02:27:09;102757.74;;;11.52;42.65
40372;BME280;28564;53.346;-6.554;2023-02-12T02:29:50;102760.54;;;11.81;42.64
40372;BME280;28564;53.346;-6.554;2023-02-12T02:32:25;102764.31;;;11.60;42.67
40372;BME280;28564;53.346;-6.554;2023-02-12T02:34:59;102763.97;;;11.91;42.63
40372;BME280;28564;53.346;-6.554;2023-02-12T02:37:32;102760.24;;;11.67;42.62
40372;BME280;28564;53.346;-6.554;2023-02-12T02:40:08;102760.31;;;11.71;42.62
40372;BME280;28564;53.346;-6.554;2023-02-12T02:42:41;102759.80;;;11.75;42.62
40372;BME280;28564;53.346;-6.554;2023-02-12T02:45:13;102759.13;;;11.77;42.61
40372;BME280;28564;53.346;-6.554;2023-02-12T02:47:44;102757.62;;;11.75;42.57
40372;BME280;28564;53.346;-6.554;2023-02-12T02:50:15;102756.87;;;11.73;42.58
40372;BME280;28564;53.346;-6.554;2023-02-12T02:52:48;102756.90;;;11.74;42.59
40372;BME280;28564;53.346;-6.554;2023-02-12T02:55:20;102752.05;;;11.75;42.54
40372;BME280;28564;53.346;-6.554;2023-02-12T02:57:51;102754.37;;;11.76;42.55
40372;BME280;28564;53.346;-6.554;2023-02-12T03:00:23;102752.46;;;12.27;42.58
40372;BME280;28564;53.346;-6.554;2023-02-12T03:02:55;102756.18;;;11.80;42.56
40372;BME280;28564;53.346;-6.554;2023-02-12T03:05:27;102758.56;;;11.75;42.55
40372;BME280;28564;53.346;-6.554;2023-02-12T03:07:59;102757.69;;;11.70;42.63
40372;BME280;28564;53.346;-6.554;2023-02-12T03:10:31;102754.64;;;11.95;42.69
40372;BME280;28564;53.346;-6.554;2023-02-12T03:13:03;102752.15;;;11.63;42.70
40372;BME280;28564;53.346;-6.554;2023-02-12T03:15:38;102747.28;;;11.63;42.79
40372;BME280;28564;53.346;-6.554;2023-02-12T03:18:09;102748.24;;;11.67;42.83
40372;BME280;28564;53.346;-6.554;2023-02-12T03:20:42;102744.47;;;11.98;42.81
40372;BME280;28564;53.346;-6.554;2023-02-12T03:23:16;102740.48;;;11.73;42.79
40372;BME280;28564;53.346;-6.554;2023-02-12T03:25:49;102740.93;;;11.75;42.75
40372;BME280;28564;53.346;-6.554;2023-02-12T03:28:21;102740.56;;;11.76;42.72
40372;BME280;28564;53.346;-6.554;2023-02-12T03:30:58;102734.10;;;11.77;42.69
40372;BME280;28564;53.346;-6.554;2023-02-12T03:33:35;102742.00;;;11.51;42.66
40372;BME280;28564;53.346;-6.554;2023-02-12T03:36:10;102738.45;;;11.72;42.72
40372;BME280;28564;53.346;-6.554;2023-02-12T03:38:44;102731.86;;;11.73;42.73
40372;BME280;28564;53.346;-6.554;2023-02-12T03:41:17;102731.68;;;11.75;42.77
40372;BME280;28564;53.346;-6.554;2023-02-12T03:43:49;102729.39;;;11.77;42.77
40372;BME280;28564;53.346;-6.554;2023-02-12T03:46:21;102726.86;;;11.77;42.76
40372;BME280;28564;53.346;-6.554;2023-02-12T03:48:57;102724.19;;;11.76;42.82
40372;BME280;28564;53.346;-6.554;2023-02-12T03:51:31;102721.88;;;12.03;42.88
40372;BME280;28564;53.346;-6.554;2023-02-12T03:54:01;102722.84;;;12.25;42.94
40372;BME280;28564;53.346;-6.554;2023-02-12T03:56:33;102716.46;;;11.75;43.03
40372;BME280;28564;53.346;-6.554;2023-02-12T03:59:04;102711.63;;;12.25;43.09
40372;BME280;28564;53.346;-6.554;2023-02-12T04:01:37;102709.59;;;11.80;43.09
40372;BME280;28564;53.346;-6.554;2023-02-12T04:04:07;102708.62;;;11.77;42.85
40372;BME280;28564;53.346;-6.554;2023-02-12T04:06:34;102705.00;;;11.71;42.61
40372;BME280;28564;53.346;-6.554;2023-02-12T04:09:05;102706.02;;;11.77;42.44
40372;BME280;28564;53.346;-6.554;2023-02-12T04:11:41;102705.26;;;12.02;42.43
40372;BME280;28564;53.346;-6.554;2023-02-12T04:14:21;102702.88;;;11.88;42.45
40372;BME280;28564;53.346;-6.554;2023-02-12T04:16:56;102701.61;;;11.72;42.40
40372;BME280;28564;53.346;-6.554;2023-02-12T04:19:33;102699.95;;;12.05;42.31
40372;BME280;28564;53.346;-6.554;2023-02-12T04:22:15;102703.72;;;12.08;42.19
40372;BME280;28564;53.346;-6.554;2023-02-12T04:24:49;102707.80;;;12.09;42.07
40372;BME280;28564;53.346;-6.554;2023-02-12T04:27:24;102708.54;;;12.05;42.02
40372;BME280;28564;53.346;-6.554;2023-02-12T04:29:56;102712.63;;;12.05;42.07
40372;BME280;28564;53.346;-6.554;2023-02-12T04:32:34;102712.11;;;12.09;42.06
40372;BME280;28564;53.346;-6.554;2023-02-12T04:35:09;102712.12;;;12.14;42.07
40372;BME280;28564;53.346;-6.554;2023-02-12T04:37:42;102710.36;;;11.92;42.04
40372;BME280;28564;53.346;-6.554;2023-02-12T04:40:14;102709.77;;;11.95;41.95
40372;BME280;28564;53.346;-6.554;2023-02-12T04:42:43;102717.85;;;12.22;41.63
40372;BME280;28564;53.346;-6.554;2023-02-12T04:45:15;102721.01;;;12.51;41.58
40372;BME280;28564;53.346;-6.554;2023-02-12T04:47:43;102722.95;;;11.98;41.92
40372;BME280;28564;53.346;-6.554;2023-02-12T04:50:11;102724.06;;;11.98;42.30
40372;BME280;28564;53.346;-6.554;2023-02-12T04:52:39;102724.54;;;11.83;42.55
40372;BME280;28564;53.346;-6.554;2023-02-12T04:55:07;102724.75;;;12.01;42.72
40372;BME280;28564;53.346;-6.554;2023-02-12T04:57:34;102723.25;;;11.65;42.89
40372;BME280;28564;53.346;-6.554;2023-02-12T05:00:01;102728.07;;;11.58;43.00
40372;BME280;28564;53.346;-6.554;2023-02-12T05:02:29;102730.47;;;11.56;43.13
40372;BME280;28564;53.346;-6.554;2023-02-12T05:04:56;102731.04;;;11.56;43.20
40372;BME280;28564;53.346;-6.554;2023-02-12T05:07:23;102732.67;;;11.52;43.20
40372;BME280;28564;53.346;-6.554;2023-02-12T05:09:50;102727.72;;;11.45;43.20
40372;BME280;28564;53.346;-6.554;2023-02-12T05:12:18;102729.96;;;11.82;43.30
40372;BME280;28564;53.346;-6.554;2023-02-12T05:14:45;102728.19;;;11.52;43.51
40372;BME280;28564;53.346;-6.554;2023-02-12T05:17:13;102727.51;;;11.57;43.62
40372;BME280;28564;53.346;-6.554;2023-02-12T05:19:41;102728.26;;;11.35;43.61
40372;BME280;28564;53.346;-6.554;2023-02-12T05:22:08;102728.32;;;11.39;43.57
40372;BME280;28564;53.346;-6.554;2023-02-12T05:24:36;102729.67;;;11.72;43.53
40372;BME280;28564;53.346;-6.554;2023-02-12T05:27:04;102732.92;;;11.49;43.49
40372;BME280;28564;53.346;-6.554;2023-02-12T05:29:31;102735.87;;;11.52;43.46
40372;BME280;28564;53.346;-6.554;2023-02-12T05:31:58;102730.34;;;11.55;43.41
40372;BME280;28564;53.346;-6.554;2023-02-12T05:34:26;102731.97;;;11.84;43.41
40372;BME280;28564;53.346;-6.554;2023-02-12T05:36:53;102730.39;;;11.59;43.41
40372;BME280;28564;53.346;-6.554;2023-02-12T05:39:20;102722.79;;;11.87;43.41
40372;BME280;28564;53.346;-6.554;2023-02-12T05:41:47;102721.29;;;11.60;43.40
40372;BME280;28564;53.346;-6.554;2023-02-12T05:44:15;102722.25;;;11.59;43.44
40372;BME280;28564;53.346;-6.554;2023-02-12T05:46:42;102723.94;;;11.57;43.40
40372;BME280;28564;53.346;-6.554;2023-02-12T05:49:09;102723.60;;;11.51;43.32
40372;BME280;28564;53.346;-6.554;2023-02-12T05:51:37;102724.22;;;11.74;43.29
40372;BME280;28564;53.346;-6.554;2023-02-12T05:54:06;102721.54;;;11.39;43.19
40372;BME280;28564;53.346;-6.554;2023-02-12T05:56:35;102717.07;;;11.32;43.19
40372;BME280;28564;53.346;-6.554;2023-02-12T05:59:04;102715.41;;;11.54;43.19
40372;BME280;28564;53.346;-6.554;2023-02-12T06:01:35;102716.81;;;11.25;43.12
40372;BME280;28564;53.346;-6.554;2023-02-12T06:04:06;102716.69;;;11.24;43.06
40372;BME280;28564;53.346;-6.554;2023-02-12T06:06:34;102717.82;;;11.25;42.90
40372;BME280;28564;53.346;-6.554;2023-02-12T06:09:02;102721.07;;;11.75;42.82
40372;BME280;28564;53.346;-6.554;2023-02-12T06:11:29;102720.72;;;11.57;42.75
40372;BME280;28564;53.346;-6.554;2023-02-12T06:13:56;102720.75;;;11.84;42.71
40372;BME280;28564;53.346;-6.554;2023-02-12T06:16:26;102720.44;;;11.85;42.48
40372;BME280;28564;53.346;-6.554;2023-02-12T06:18:54;102720.43;;;11.84;42.38
40372;BME280;28564;53.346;-6.554;2023-02-12T06:21:23;102716.16;;;11.35;42.35
40372;BME280;28564;53.346;-6.554;2023-02-12T06:23:51;102714.00;;;11.38;42.18
40372;BME280;28564;53.346;-6.554;2023-02-12T06:26:20;102714.37;;;11.89;42.20
40372;BME280;28564;53.346;-6.554;2023-02-12T06:28:47;102714.06;;;11.42;42.17
40372;BME280;28564;53.346;-6.554;2023-02-12T06:31:18;102711.94;;;11.39;42.21
40372;BME280;28564;53.346;-6.554;2023-02-12T06:33:45;102710.38;;;11.41;42.23
40372;BME280;28564;53.346;-6.554;2023-02-12T06:36:13;102709.67;;;11.87;42.14
40372;BME280;28564;53.346;-6.554;2023-02-12T06:38:40;102708.63;;;11.84;42.14
40372;BME280;28564;53.346;-6.554;2023-02-12T06:41:07;102707.34;;;11.62;42.11
40372;BME280;28564;53.346;-6.554;2023-02-12T06:43:35;102703.31;;;11.62;42.18
40372;BME280;28564;53.346;-6.554;2023-02-12T06:46:03;102701.34;;;11.60;42.18
40372;BME280;28564;53.346;-6.554;2023-02-12T06:48:31;102700.46;;;11.28;42.20
40372;BME280;28564;53.346;-6.554;2023-02-12T06:51:04;102698.60;;;11.48;42.33
40372;BME280;28564;53.346;-6.554;2023-02-12T06:53:32;102695.80;;;11.66;42.41
40372;BME280;28564;53.346;-6.554;2023-02-12T06:56:00;102697.11;;;11.39;42.48
40372;BME280;28564;53.346;-6.554;2023-02-12T06:58:27;102692.93;;;11.34;42.53
40372;BME280;28564;53.346;-6.554;2023-02-12T07:00:54;102694.68;;;11.55;42.53
40372;BME280;28564;53.346;-6.554;2023-02-12T07:03:21;102695.28;;;11.54;42.55
40372;BME280;28564;53.346;-6.554;2023-02-12T07:05:49;102699.03;;;11.02;42.59
40372;BME280;28564;53.346;-6.554;2023-02-12T07:08:16;102702.00;;;11.26;42.56
40372;BME280;28564;53.346;-6.554;2023-02-12T07:10:47;102700.39;;;11.46;42.64
40372;BME280;28564;53.346;-6.554;2023-02-12T07:13:15;102699.13;;;11.47;42.70
40372;BME280;28564;53.346;-6.554;2023-02-12T07:15:42;102700.85;;;11.50;42.64
40372;BME280;28564;53.346;-6.554;2023-02-12T07:18:09;102698.81;;;11.26;42.54
40372;BME280;28564;53.346;-6.554;2023-02-12T07:20:36;102701.61;;;11.46;42.63
40372;BME280;28564;53.346;-6.554;2023-02-12T07:23:04;102705.38;;;11.25;42.56
40372;BME280;28564;53.346;-6.554;2023-02-12T07:25:32;102706.27;;;11.50;42.52
40372;BME280;28564;53.346;-6.554;2023-02-12T07:27:59;102705.03;;;11.52;42.42
40372;BME280;28564;53.346;-6.554;2023-02-12T07:30:26;102707.84;;;11.56;42.31
40372;BME280;28564;53.346;-6.554;2023-02-12T07:32:53;102708.97;;;11.52;42.40
40372;BME280;28564;53.346;-6.554;2023-02-12T07:35:20;102710.86;;;11.52;42.43
40372;BME280;28564;53.346;-6.554;2023-02-12T07:37:48;102714.11;;;11.50;42.43
40372;BME280;28564;53.346;-6.554;2023-02-12T07:40:15;102716.90;;;11.49;42.51
40372;BME280;28564;53.346;-6.554;2023-02-12T07:42:43;102718.86;;;11.47;42.55
40372;BME280;28564;53.346;-6.554;2023-02-12T07:45:10;102720.48;;;11.47;42.60
40372;BME280;28564;53.346;-6.554;2023-02-12T07:47:37;102723.93;;;10.93;42.70
40372;BME280;28564;53.346;-6.554;2023-02-12T07:50:06;102726.94;;;11.38;42.80
40372;BME280;28564;53.346;-6.554;2023-02-12T07:52:33;102725.73;;;11.15;42.88
40372;BME280;28564;53.346;-6.554;2023-02-12T07:55:01;102727.67;;;11.36;42.85
40372;BME280;28564;53.346;-6.554;2023-02-12T07:57:28;102727.93;;;11.15;42.89
40372;BME280;28564;53.346;-6.554;2023-02-12T07:59:55;102729.22;;;11.39;42.88
40372;BME280;28564;53.346;-6.554;2023-02-12T08:02:23;102732.39;;;11.40;42.79
40372;BME280;28564;53.346;-6.554;2023-02-12T08:04:54;102737.67;;;11.20;42.75
40372;BME280;28564;53.346;-6.554;2023-02-12T08:07:22;102736.70;;;11.40;42.75
40372;BME280;28564;53.346;-6.554;2023-02-12T08:09:49;102740.28;;;11.39;42.81
40372;BME280;28564;53.346;-6.554;2023-02-12T08:12:17;102741.46;;;11.43;42.85
40372;BME280;28564;53.346;-6.554;2023-02-12T08:14:44;102741.69;;;11.49;42.84
40372;BME280;28564;53.346;-6.554;2023-02-12T08:17:12;102747.28;;;11.47;42.85
40372;BME280;28564;53.346;-6.554;2023-02-12T08:19:39;102746.16;;;11.47;42.90
40372;BME280;28564;53.346;-6.554;2023-02-12T08:22:06;102748.31;;;11.49;42.87
40372;BME280;28564;53.346;-6.554;2023-02-12T08:24:33;102748.43;;;11.46;42.98
40372;BME280;28564;53.346;-6.554;2023-02-12T08:27:00;102749.62;;;11.28;43.00
40372;BME280;28564;53.346;-6.554;2023-02-12T08:29:29;102747.15;;;11.54;42.94
40372;BME280;28564;53.346;-6.554;2023-02-12T08:31:58;102749.28;;;11.56;42.96
40372;BME280;28564;53.346;-6.554;2023-02-12T08:34:27;102750.18;;;11.60;42.89
40372;BME280;28564;53.346;-6.554;2023-02-12T08:36:55;102750.80;;;11.64;42.87
40372;BME280;28564;53.346;-6.554;2023-02-12T08:39:25;102748.39;;;11.66;42.80
40372;BME280;28564;53.346;-6.554;2023-02-12T08:41:53;102750.88;;;11.65;42.72
40372;BME280;28564;53.346;-6.554;2023-02-12T08:44:21;102751.90;;;11.49;42.51
40372;BME280;28564;53.346;-6.554;2023-02-12T08:46:50;102752.55;;;11.29;42.37
40372;BME280;28564;53.346;-6.554;2023-02-12T08:49:20;102751.26;;;11.60;41.98
40372;BME280;28564;53.346;-6.554;2023-02-12T08:51:50;102752.27;;;11.60;41.96
40372;BME280;28564;53.346;-6.554;2023-02-12T08:54:19;102749.87;;;11.86;41.91
40372;BME280;28564;53.346;-6.554;2023-02-12T08:56:47;102752.95;;;11.43;41.82
40372;BME280;28564;53.346;-6.554;2023-02-12T08:59:15;102751.41;;;11.73;41.71
40372;BME280;28564;53.346;-6.554;2023-02-12T09:01:43;102750.42;;;11.78;41.78
40372;BME280;28564;53.346;-6.554;2023-02-12T09:04:14;102748.18;;;11.86;41.69
40372;BME280;28564;53.346;-6.554;2023-02-12T09:06:41;102742.85;;;11.63;41.69
40372;BME280;28564;53.346;-6.554;2023-02-12T09:09:09;102744.85;;;11.64;41.74
40372;BME280;28564;53.346;-6.554;2023-02-12T09:11:36;102741.93;;;11.66;41.63
40372;BME280;28564;53.346;-6.554;2023-02-12T09:14:06;102740.10;;;12.14;41.61
40372;BME280;28564;53.346;-6.554;2023-02-12T09:16:35;102741.60;;;11.64;41.58
40372;BME280;28564;53.346;-6.554;2023-02-12T09:19:03;102742.03;;;11.91;41.59
40372;BME280;28564;53.346;-6.554;2023-02-12T09:21:31;102737.68;;;11.94;41.55
40372;BME280;28564;53.346;-6.554;2023-02-12T09:24:00;102728.97;;;11.98;41.45
40372;BME280;28564;53.346;-6.554;2023-02-12T09:26:27;102732.15;;;12.23;41.45
40372;BME280;28564;53.346;-6.554;2023-02-12T09:28:55;102726.42;;;11.76;41.40
40372;BME280;28564;53.346;-6.554;2023-02-12T09:31:24;102723.34;;;11.80;41.37
40372;BME280;28564;53.346;-6.554;2023-02-12T09:33:53;102722.80;;;11.85;41.24
40372;BME280;28564;53.346;-6.554;2023-02-12T09:36:20;102721.99;;;11.92;41.32
40372;BME280;28564;53.346;-6.554;2023-02-12T09:38:48;102718.21;;;12.00;40.99
40372;BME280;28564;53.346;-6.554;2023-02-12T09:41:33;102718.31;;;12.06;41.05
40372;BME280;28564;53.346;-6.554;2023-02-12T09:44:08;102715.00;;;12.21;41.08
40372;BME280;28564;53.346;-6.554;2023-02-12T09:46:44;102715.01;;;12.40;40.86
40372;BME280;28564;53.346;-6.554;2023-02-12T09:49:20;102711.11;;;12.50;40.54
40372;BME280;28564;53.346;-6.554;2023-02-12T09:51:51;102705.03;;;12.52;40.37
40372;BME280;28564;53.346;-6.554;2023-02-12T09:54:22;102702.32;;;12.60;40.14
40372;BME280;28564;53.346;-6.554;2023-02-12T09:56:54;102700.28;;;12.43;39.85
40372;BME280;28564;53.346;-6.554;2023-02-12T09:59:28;102695.76;;;12.50;39.65
40372;BME280;28564;53.346;-6.554;2023-02-12T10:01:59;102693.06;;;12.35;39.46
40372;BME280;28564;53.346;-6.554;2023-02-12T10:04:27;102694.19;;;12.88;39.10
40372;BME280;28564;53.346;-6.554;2023-02-12T10:07:01;102694.77;;;12.74;38.87
40372;BME280;28564;53.346;-6.554;2023-02-12T10:09:41;102694.34;;;12.88;38.67
40372;BME280;28564;53.346;-6.554;2023-02-12T10:12:22;102691.03;;;12.88;38.74
40372;BME280;28564;53.346;-6.554;2023-02-12T10:15:11;102697.05;;;13.03;37.85
40372;BME280;28564;53.346;-6.554;2023-02-12T10:17:45;102696.51;;;13.06;37.49
40372;BME280;28564;53.346;-6.554;2023-02-12T10:20:30;102700.71;;;13.07;37.64
40372;BME280;28564;53.346;-6.554;2023-02-12T10:23:09;102700.73;;;13.20;37.01
40372;BME280;28564;53.346;-6.554;2023-02-12T10:25:44;102696.53;;;13.18;36.61
40372;BME280;28564;53.346;-6.554;2023-02-12T10:28:16;102699.60;;;13.16;36.56
40372;BME280;28564;53.346;-6.554;2023-02-12T10:30:48;102697.96;;;13.17;36.37
40372;BME280;28564;53.346;-6.554;2023-02-12T10:33:20;102693.46;;;13.15;36.37
40372;BME280;28564;53.346;-6.554;2023-02-12T10:35:54;102694.47;;;13.37;36.62
40372;BME280;28564;53.346;-6.554;2023-02-12T10:38:30;102686.82;;;13.19;36.73
40372;BME280;28564;53.346;-6.554;2023-02-12T10:40:59;102688.61;;;13.26;36.42
40372;BME280;28564;53.346;-6.554;2023-02-12T10:43:27;102693.35;;;13.53;36.04
40372;BME280;28564;53.346;-6.554;2023-02-12T10:45:54;102690.63;;;13.21;36.04
40372;BME280;28564;53.346;-6.554;2023-02-12T10:48:26;102688.25;;;13.04;36.30
40372;BME280;28564;53.346;-6.554;2023-02-12T10:51:05;102687.75;;;13.43;36.52
40372;BME280;28564;53.346;-6.554;2023-02-12T10:53:38;102685.70;;;13.24;36.57
40372;BME280;28564;53.346;-6.554;2023-02-12T10:56:13;102686.43;;;13.17;36.74
40372;BME280;28564;53.346;-6.554;2023-02-12T10:58:50;102684.67;;;13.77;36.71
40372;BME280;28564;53.346;-6.554;2023-02-12T11:01:21;102686.04;;;13.37;36.62
40372;BME280;28564;53.346;-6.554;2023-02-12T11:03:49;102684.88;;;13.45;36.62
40372;BME280;28564;53.346;-6.554;2023-02-12T11:06:18;102680.59;;;13.57;36.49
40372;BME280;28564;53.346;-6.554;2023-02-12T11:08:47;102677.30;;;13.66;36.32
40372;BME280;28564;53.346;-6.554;2023-02-12T11:11:19;102674.01;;;13.70;36.27
40372;BME280;28564;53.346;-6.554;2023-02-12T11:13:53;102679.35;;;13.20;36.26
40372;BME280;28564;53.346;-6.554;2023-02-12T11:16:29;102679.50;;;13.59;36.44
40372;BME280;28564;53.346;-6.554;2023-02-12T11:19:00;102673.37;;;13.61;36.57
40372;BME280;28564;53.346;-6.554;2023-02-12T11:21:27;102672.09;;;13.45;36.67
40372;BME280;28564;53.346;-6.554;2023-02-12T11:23:54;102664.78;;;13.88;36.46
40372;BME280;28564;53.346;-6.554;2023-02-12T11:26:25;102668.43;;;13.75;36.31
40372;BME280;28564;53.346;-6.554;2023-02-12T11:28:55;102661.67;;;14.14;35.90
40372;BME280;28564;53.346;-6.554;2023-02-12T11:31:24;102666.76;;;13.77;35.61
40372;BME280;28564;53.346;-6.554;2023-02-12T11:34:24;102664.39;;;13.87;35.76
40372;BME280;28564;53.346;-6.554;2023-02-12T11:36:52;102666.15;;;14.02;35.37
40372;BME280;28564;53.346;-6.554;2023-02-12T11:39:23;102666.09;;;14.02;35.55
40372;BME280;28564;53.346;-6.554;2023-02-12T11:41:53;102666.09;;;14.24;35.43
40372;BME280;28564;53.346;-6.554;2023-02-12T11:44:24;102662.85;;;14.42;35.61
40372;BME280;28564;53.346;-6.554;2023-02-12T11:46:54;102659.94;;;14.79;35.14
40372;BME280;28564;53.346;-6.554;2023-02-12T11:49:26;102653.47;;;14.76;34.56
40372;BME280;28564;53.346;-6.554;2023-02-12T11:51:57;102646.06;;;14.93;34.22
40372;BME280;28564;53.346;-6.554;2023-02-12T11:54:27;102646.17;;;14.73;34.02
40372;BME280;28564;53.346;-6.554;2023-02-12T11:56:54;102645.41;;;15.11;34.27
40372;BME280;28564;53.346;-6.554;2023-02-12T11:59:31;102645.03;;;15.21;34.40
40372;BME280;28564;53.346;-6.554;2023-02-12T12:02:03;102640.49;;;15.53;33.85
40372;BME280;28564;53.346;-6.554;2023-02-12T12:04:33;102635.02;;;15.61;33.50
40372;BME280;28564;53.346;-6.554;2023-02-12T12:07:06;102635.15;;;15.48;33.40
40372;BME280;28564;53.346;-6.554;2023-02-12T12:09:41;102638.37;;;15.28;33.14
40372;BME280;28564;53.346;-6.554;2023-02-12T12:12:15;102640.29;;;15.19;33.21
40372;BME280;28564;53.346;-6.554;2023-02-12T12:14:47;102635.09;;;15.04;33.33
40372;BME280;28564;53.346;-6.554;2023-02-12T12:17:16;102629.55;;;14.78;33.30
40372;BME280;28564;53.346;-6.554;2023-02-12T12:19:51;102622.21;;;15.37;33.17
40372;BME280;28564;53.346;-6.554;2023-02-12T12:22:34;102614.23;;;15.79;32.71
40372;BME280;28564;53.346;-6.554;2023-02-12T12:25:11;102609.30;;;15.47;32.61
40372;BME280;28564;53.346;-6.554;2023-02-12T12:27:48;102601.25;;;15.66;32.11
40372;BME280;28564;53.346;-6.554;2023-02-12T12:30:26;102592.24;;;15.58;32.07
40372;BME280;28564;53.346;-6.554;2023-02-12T12:33:05;102585.57;;;15.61;32.33
40372;BME280;28564;53.346;-6.554;2023-02-12T12:35:40;102583.56;;;15.87;32.17
40372;BME280;28564;53.346;-6.554;2023-02-12T12:38:20;102581.64;;;16.14;32.07
40372;BME280;28564;53.346;-6.554;2023-02-12T12:41:04;102579.77;;;16.28;31.73
40372;BME280;28564;53.346;-6.554;2023-02-12T12:43:48;102574.65;;;15.89;31.75
40372;BME280;28564;53.346;-6.554;2023-02-12T12:46:46;102576.37;;;16.70;31.84
40372;BME280;28564;53.346;-6.554;2023-02-12T12:49:36;102575.69;;;16.89;31.33
40372;BME280;28564;53.346;-6.554;2023-02-12T12:52:24;102570.15;;;16.94;30.57
40372;BME280;28564;53.346;-6.554;2023-02-12T12:57:24;102568.36;;;16.75;31.35
40372;BME280;28564;53.346;-6.554;2023-02-12T13:00:09;102565.06;;;16.26;31.70